Time;durP1;ratioP1;P1;durP2;ratioP2;P2;SDS_P1;SDS_P2;PMS_P1;PMS_P2;Temp;Humidity;BMP_temperature;BMP_pressure;BME280_temperature;BME280_humidity;BME280_pressure;Samples;Min_cycle;Max_cycle;Signal;HPM_P1;HPM_P2
2022/01/23 00:00:27;;;;;;;15.45;5.75;;;8.30;86.20;;;;;;5982301;23;92444;-66
2022/01/23 00:03:00;;;;;;;9.60;5.68;;;8.30;86.10;;;;;;5949654;23;94106;-67
2022/01/23 00:05:33;;;;;;;10.33;5.00;;;8.40;86.20;;;;;;5950998;23;99028;-66
2022/01/23 00:08:01;;;;;;;9.85;5.05;;;8.30;86.20;;;;;;5949898;23;92405;-66
2022/01/23 00:10:28;;;;;;;12.52;5.22;;;8.30;86.10;;;;;;5951219;23;92541;-66
2022/01/23 00:13:07;;;;;;;9.05;5.00;;;8.30;86.00;;;;;;5949384;23;94031;-71
2022/01/23 00:18:20;;;;;;;10.60;5.22;;;8.30;86.00;;;;;;5951133;23;92354;-70
2022/01/23 00:20:48;;;;;;;11.80;4.82;;;8.30;86.00;;;;;;5951441;23;92435;-70
2022/01/23 00:23:30;;;;;;;11.75;4.25;;;8.30;85.90;;;;;;5949227;23;95456;-70
2022/01/23 00:31:31;;;;;;;8.88;4.22;;;8.30;86.00;;;;;;5950887;23;92455;-69
2022/01/23 00:33:59;;;;;;;8.50;4.32;;;8.30;86.00;;;;;;5950424;23;93099;-72
2022/01/23 00:36:27;;;;;;;8.35;3.90;;;8.20;85.90;;;;;;5950804;23;92815;-71
2022/01/23 00:38:55;;;;;;;14.43;4.78;;;8.20;85.90;;;;;;5949412;23;92446;-70
2022/01/23 00:41:23;;;;;;;7.82;4.15;;;8.30;86.10;;;;;;5951368;23;91654;-67
2022/01/23 00:43:52;;;;;;;10.65;4.50;;;8.30;86.10;;;;;;5950846;23;97293;-66
2022/01/23 00:51:32;;;;;;;6.47;3.92;;;8.30;85.90;;;;;;5949391;23;92825;-70
2022/01/23 00:54:02;;;;;;;8.95;4.00;;;8.30;85.80;;;;;;5951009;23;93179;-66
2022/01/23 00:56:29;;;;;;;5.22;3.60;;;8.30;85.90;;;;;;5950305;23;92799;-70
2022/01/23 00:58:56;;;;;;;9.95;4.03;;;8.30;85.90;;;;;;5951173;23;92399;-71
2022/01/23 01:01:24;;;;;;;7.28;3.88;;;8.30;86.20;;;;;;5963288;23;92483;-73
2022/01/23 01:03:52;;;;;;;7.95;4.30;;;8.30;85.80;;;;;;5977544;23;94121;-69
2022/01/23 01:06:19;;;;;;;10.68;3.95;;;8.30;85.90;;;;;;5979358;23;92662;-69
2022/01/23 01:08:49;;;;;;;6.80;3.53;;;8.20;85.90;;;;;;5977952;23;92497;-72
2022/01/23 01:33:23;;;;;;;8.63;4.88;;;8.30;85.80;;;;;;5978043;23;91823;-71
2022/01/23 01:35:51;;;;;;;7.13;4.68;;;8.30;85.90;;;;;;5974422;23;95873;-70
2022/01/23 01:38:18;;;;;;;11.43;5.05;;;8.30;85.80;;;;;;5978737;23;92662;-70
2022/01/23 01:40:45;;;;;;;12.85;5.60;;;8.30;85.90;;;;;;5976014;23;95041;-70
2022/01/23 01:43:12;;;;;;;8.93;5.32;;;8.30;85.90;;;;;;5977362;23;92618;-70
2022/01/23 01:45:41;;;;;;;8.70;4.55;;;8.30;85.80;;;;;;5978796;23;94441;-66
2022/01/23 01:48:17;;;;;;;8.07;4.88;;;8.30;85.70;;;;;;5980509;23;93935;-66
2022/01/23 01:50:47;;;;;;;10.32;4.72;;;8.30;85.70;;;;;;5979034;23;92513;-70
2022/01/23 01:53:15;;;;;;;9.23;4.90;;;8.20;85.70;;;;;;5978717;23;92420;-70
2022/01/23 01:55:47;;;;;;;12.23;4.90;;;8.20;85.80;;;;;;5978545;23;94264;-70
2022/01/23 02:09:42;;;;;;;8.38;4.82;;;8.10;86.00;;;;;;5984390;23;97309;-72
2022/01/23 02:50:51;;;;;;;10.93;5.00;;;8.10;86.00;;;;;;5982199;23;95557;-66
2022/01/23 02:53:53;;;;;;;11.27;4.82;;;8.10;86.10;;;;;;5960977;23;95795;-67
2022/01/23 02:56:31;;;;;;;11.43;4.45;;;8.10;86.00;;;;;;5982183;23;92481;-66
2022/01/23 02:59:10;;;;;;;8.80;4.68;;;8.10;86.00;;;;;;5982663;23;92811;-66
2022/01/23 03:01:48;;;;;;;9.50;4.90;;;8.00;86.00;;;;;;5980440;23;98063;-66
2022/01/23 03:04:47;;;;;;;7.85;4.45;;;8.10;86.20;;;;;;6004858;23;96177;-66
2022/01/23 03:10:06;;;;;;;8.88;4.70;;;8.00;86.20;;;;;;5982340;23;92507;-67
2022/01/23 03:33:48;;;;;;;10.30;4.72;;;8.10;86.10;;;;;;5982147;23;94181;-66
2022/01/23 03:36:15;;;;;;;8.88;4.68;;;8.00;86.20;;;;;;6007484;23;98390;-66
2022/01/23 03:38:42;;;;;;;9.43;5.45;;;8.00;86.20;;;;;;6007849;23;92354;-66
2022/01/23 03:41:11;;;;;;;9.38;4.63;;;8.00;86.30;;;;;;5982924;23;92496;-66
2022/01/23 03:43:40;;;;;;;11.77;5.38;;;8.00;86.30;;;;;;5982158;23;94044;-66
2022/01/23 03:46:23;;;;;;;10.90;4.88;;;8.10;86.30;;;;;;5982561;23;95432;-66
2022/01/23 03:51:23;;;;;;;11.27;5.55;;;8.10;86.50;;;;;;5982002;23;92641;-66
2022/01/23 03:53:50;;;;;;;9.30;4.80;;;8.10;86.40;;;;;;6005811;23;95349;-66
2022/01/23 03:56:21;;;;;;;9.18;4.90;;;8.10;86.30;;;;;;5981821;23;97676;-66
2022/01/23 03:58:50;;;;;;;10.55;4.90;;;8.00;86.30;;;;;;6029958;23;92412;-66
2022/01/23 04:01:20;;;;;;;9.13;5.10;;;8.00;86.50;;;;;;5981677;23;92519;-69
2022/01/23 04:03:50;;;;;;;10.05;5.03;;;8.00;86.50;;;;;;5981747;23;95000;-69
2022/01/23 04:06:17;;;;;;;8.65;4.82;;;8.00;86.50;;;;;;5981781;23;94461;-69
2022/01/23 04:08:45;;;;;;;10.70;4.10;;;8.00;86.30;;;;;;6029513;23;92539;-69
2022/01/23 04:11:12;;;;;;;10.55;4.90;;;8.00;86.30;;;;;;5982536;23;93368;-69
2022/01/23 04:13:48;;;;;;;10.15;5.30;;;8.00;86.40;;;;;;6007168;23;92930;-69
2022/01/23 04:16:43;;;;;;;9.18;4.85;;;8.00;86.40;;;;;;5981938;23;95274;-69
2022/01/23 05:00:36;;;;;;;7.75;4.85;;;8.10;85.70;;;;;;5961516;23;95350;-67
2022/01/23 05:06:27;;;;;;;9.50;4.82;;;8.10;85.80;;;;;;5974733;23;91775;-66
2022/01/23 05:09:23;;;;;;;10.15;4.35;;;8.10;86.00;;;;;;5981853;23;93860;-66
2022/01/23 05:12:12;;;;;;;8.02;4.97;;;8.00;86.00;;;;;;6007114;23;92746;-66
2022/01/23 05:14:43;;;;;;;7.80;4.72;;;8.10;86.20;;;;;;5980249;23;94912;-67
2022/01/23 05:17:14;;;;;;;9.40;4.50;;;8.10;86.10;;;;;;6007379;23;92430;-67
2022/01/23 05:19:42;;;;;;;7.88;4.70;;;8.10;86.00;;;;;;6006656;23;94246;-66
2022/01/23 05:25:08;;;;;;;7.65;4.65;;;8.10;85.90;;;;;;6007048;23;92453;-67
2022/01/23 05:27:35;;;;;;;8.10;4.88;;;8.10;85.90;;;;;;6007395;23;92964;-66
2022/01/23 05:30:04;;;;;;;9.48;4.97;;;8.00;85.90;;;;;;6006629;23;93122;-67
2022/01/23 05:32:42;;;;;;;8.70;4.95;;;8.10;86.00;;;;;;6007292;23;92771;-66
2022/01/23 05:35:11;;;;;;;10.32;5.57;;;8.10;86.00;;;;;;6007115;23;92368;-66
2022/01/23 05:37:40;;;;;;;6.80;4.50;;;8.10;86.00;;;;;;5981889;23;92499;-66
2022/01/23 05:40:15;;;;;;;8.38;4.20;;;8.10;85.70;;;;;;6005425;23;95396;-67
2022/01/23 05:42:44;;;;;;;8.80;4.50;;;8.10;85.50;;;;;;5981345;23;97993;-66
2022/01/23 05:45:12;;;;;;;7.68;4.70;;;8.10;85.40;;;;;;5981249;23;92400;-66
2022/01/23 05:47:57;;;;;;;6.75;4.25;;;8.10;85.20;;;;;;6006793;23;92408;-66
2022/01/23 05:50:44;;;;;;;7.00;4.43;;;8.10;85.50;;;;;;6006792;23;92682;-67
2022/01/23 05:53:30;;;;;;;10.50;4.80;;;8.00;85.40;;;;;;5980899;23;93854;-67
2022/01/23 05:56:10;;;;;;;7.63;4.50;;;8.00;85.50;;;;;;5981409;23;92526;-67
2022/01/23 05:58:56;;;;;;;10.10;4.63;;;8.10;85.40;;;;;;5985993;23;91632;-66
2022/01/23 06:01:27;;;;;;;8.45;5.00;;;8.00;85.30;;;;;;5981002;23;94490;-66
2022/01/23 06:04:02;;;;;;;8.50;4.60;;;8.00;85.30;;;;;;5981279;23;94982;-69
2022/01/23 06:06:37;;;;;;;8.77;4.75;;;8.10;85.40;;;;;;5958732;23;95015;-67
2022/01/23 06:09:05;;;;;;;6.50;4.20;;;8.00;85.40;;;;;;5980970;23;92471;-69
2022/01/23 06:11:32;;;;;;;8.77;4.45;;;8.00;85.30;;;;;;5981039;23;95656;-69
2022/01/23 06:13:59;;;;;;;9.25;4.20;;;8.00;85.20;;;;;;5980923;23;94516;-69
2022/01/23 06:16:26;;;;;;;9.15;4.88;;;8.00;85.20;;;;;;5957861;23;92576;-69
2022/01/23 06:19:16;;;;;;;10.00;4.60;;;8.00;85.30;;;;;;5953229;23;92764;-69
2022/01/23 06:22:02;;;;;;;6.68;4.40;;;8.00;85.40;;;;;;6006621;23;92885;-69
2022/01/23 06:24:55;;;;;;;6.10;4.25;;;7.90;85.40;;;;;;5981113;23;95046;-67
2022/01/23 06:27:31;;;;;;;5.90;4.10;;;7.90;85.50;;;;;;5983587;23;92478;-66
2022/01/23 06:29:59;;;;;;;7.70;4.80;;;7.80;85.50;;;;;;5980926;23;92453;-66
2022/01/23 06:32:26;;;;;;;7.47;4.97;;;7.80;85.70;;;;;;5981099;23;96791;-66
2022/01/23 06:34:54;;;;;;;8.13;4.55;;;7.80;85.70;;;;;;5958738;23;96447;-66
2022/01/23 06:37:21;;;;;;;8.73;5.25;;;7.80;85.80;;;;;;6008249;23;92331;-66
2022/01/23 06:39:48;;;;;;;8.40;4.57;;;7.80;85.90;;;;;;5982859;23;92855;-66
2022/01/23 06:42:24;;;;;;;8.98;4.50;;;7.80;86.00;;;;;;6030231;23;95170;-66
2022/01/23 06:45:14;;;;;;;7.88;4.28;;;7.80;86.10;;;;;;6006487;23;93603;-67
2022/01/23 06:47:42;;;;;;;8.32;5.10;;;7.70;86.20;;;;;;5982567;23;92354;-66
2022/01/23 06:50:11;;;;;;;7.38;4.45;;;7.70;86.40;;;;;;5982757;23;92336;-66
2022/01/23 06:52:38;;;;;;;6.75;4.60;;;7.70;86.30;;;;;;6007851;23;92996;-66
2022/01/23 06:55:05;;;;;;;6.78;4.30;;;7.70;86.10;;;;;;6007662;23;92470;-66
2022/01/23 06:57:33;;;;;;;9.23;4.20;;;7.70;86.40;;;;;;5980905;23;94842;-66
2022/01/23 06:59:59;;;;;;;7.20;4.32;;;7.70;86.40;;;;;;5982279;23;92439;-66
2022/01/23 07:02:45;;;;;;;10.30;4.35;;;7.70;86.40;;;;;;6007753;23;92795;-66
2022/01/23 07:05:38;;;;;;;8.88;5.13;;;7.80;86.50;;;;;;5986170;23;93734;-66
2022/01/23 07:08:12;;;;;;;9.68;4.68;;;7.80;86.50;;;;;;5960145;23;92379;-66
2022/01/23 07:10:54;;;;;;;11.18;4.68;;;7.70;86.50;;;;;;5982585;23;92500;-67
2022/01/23 07:13:44;;;;;;;8.65;4.68;;;7.80;86.40;;;;;;5995662;23;92926;-66
2022/01/23 07:16:22;;;;;;;7.32;4.80;;;7.80;86.40;;;;;;5982577;23;95286;-66
2022/01/23 07:19:17;;;;;;;7.60;4.72;;;7.80;86.40;;;;;;6003151;23;92449;-67
2022/01/23 07:21:55;;;;;;;7.68;4.57;;;7.80;86.50;;;;;;5982060;23;92546;-66
2022/01/23 07:24:23;;;;;;;6.93;4.53;;;7.80;86.40;;;;;;5980110;23;97569;-66
2022/01/23 07:26:50;;;;;;;7.43;4.30;;;7.80;86.40;;;;;;6007585;23;95006;-66
2022/01/23 07:29:18;;;;;;;8.07;4.82;;;7.80;86.40;;;;;;6006149;23;92477;-66
2022/01/23 07:32:08;;;;;;;8.05;4.97;;;7.80;86.20;;;;;;5982372;23;95468;-66
2022/01/23 07:34:32;;;;;;;6.45;5.20;;;7.80;86.20;;;;;;5981618;23;94868;-66
2022/01/23 07:37:01;;;;;;;7.60;4.63;;;7.80;86.10;;;;;;5981505;23;95751;-66
2022/01/23 07:39:42;;;;;;;8.48;4.68;;;7.80;86.20;;;;;;6009298;23;92438;-67
2022/01/23 07:42:29;;;;;;;7.63;5.25;;;7.90;86.20;;;;;;6007012;23;91679;-67
2022/01/23 07:45:04;;;;;;;7.38;5.28;;;7.90;86.20;;;;;;6007830;23;92559;-66
2022/01/23 07:47:49;;;;;;;9.52;5.15;;;7.90;86.20;;;;;;6007816;23;92309;-67
2022/01/23 07:50:40;;;;;;;9.45;5.63;;;7.90;86.20;;;;;;5981357;23;95368;-67
2022/01/23 07:53:18;;;;;;;9.20;5.18;;;7.90;86.20;;;;;;5982124;23;92448;-69
2022/01/23 07:56:15;;;;;;;7.95;5.40;;;7.90;86.20;;;;;;5994023;23;92815;-69
2022/01/23 07:58:44;;;;;;;8.25;5.45;;;7.90;86.10;;;;;;6007666;23;92720;-69
2022/01/23 08:01:21;;;;;;;9.45;5.00;;;8.00;86.10;;;;;;6007871;23;92849;-66
2022/01/23 08:04:07;;;;;;;7.75;5.10;;;8.00;86.00;;;;;;6007627;23;92375;-66
2022/01/23 08:06:42;;;;;;;9.80;4.88;;;8.00;86.10;;;;;;5935468;23;94409;-66
2022/01/23 08:09:38;;;;;;;8.77;5.18;;;8.10;86.20;;;;;;5982162;23;94917;-66
2022/01/23 08:12:08;;;;;;;10.80;5.53;;;8.10;86.10;;;;;;6007534;23;92453;-66
2022/01/23 08:14:35;;;;;;;11.70;6.53;;;8.10;86.00;;;;;;5982253;23;92469;-66
2022/01/23 08:17:03;;;;;;;6.80;5.15;;;8.20;85.90;;;;;;6006109;23;95313;-67
2022/01/23 08:19:29;;;;;;;8.85;5.38;;;8.20;85.70;;;;;;5981582;23;96309;-67
2022/01/23 08:21:56;;;;;;;8.75;5.40;;;8.20;85.50;;;;;;5982549;23;92542;-66
2022/01/23 08:24:23;;;;;;;8.82;5.22;;;8.30;85.40;;;;;;5981778;23;92448;-66
2022/01/23 08:26:50;;;;;;;8.48;5.28;;;8.30;85.50;;;;;;6007393;23;92989;-66
2022/01/23 08:29:17;;;;;;;7.88;5.45;;;8.30;85.40;;;;;;6007194;23;92712;-67
2022/01/23 08:31:45;;;;;;;7.30;5.45;;;8.40;85.30;;;;;;6007726;23;92340;-66
2022/01/23 08:34:12;;;;;;;5.88;4.68;;;8.40;85.10;;;;;;6007366;23;98173;-66
2022/01/23 08:36:39;;;;;;;6.45;4.47;;;8.50;85.20;;;;;;6007575;23;93100;-67
2022/01/23 08:39:07;;;;;;;7.35;4.85;;;8.50;85.00;;;;;;6007448;23;92731;-67
2022/01/23 08:41:49;;;;;;;8.20;5.15;;;8.50;84.90;;;;;;6006025;23;94759;-67
2022/01/23 08:44:22;;;;;;;5.82;4.57;;;8.60;84.70;;;;;;5981941;23;92443;-66
2022/01/23 08:46:50;;;;;;;7.05;4.95;;;8.60;84.70;;;;;;6007464;23;93084;-67
2022/01/23 08:49:20;;;;;;;8.93;4.72;;;8.70;84.70;;;;;;6007147;23;92740;-67
2022/01/23 08:51:50;;;;;;;8.40;5.25;;;8.80;84.60;;;;;;6007660;23;92490;-67
2022/01/23 08:54:18;;;;;;;5.72;5.15;;;8.80;84.40;;;;;;6006574;23;92418;-67
2022/01/23 08:56:45;;;;;;;8.25;5.18;;;8.90;84.20;;;;;;6007490;23;93030;-67
2022/01/23 08:59:12;;;;;;;6.32;5.15;;;8.90;83.90;;;;;;6006807;23;105630;-66
2022/01/23 09:01:39;;;;;;;12.23;5.20;;;9.00;83.70;;;;;;6007122;23;92382;-67
2022/01/23 09:04:07;;;;;;;6.57;4.70;;;9.00;83.50;;;;;;5982033;23;92361;-67
2022/01/23 09:06:34;;;;;;;6.45;4.63;;;9.10;83.30;;;;;;6005506;23;95402;-67
2022/01/23 09:09:04;;;;;;;5.63;4.38;;;9.10;83.20;;;;;;6007299;23;95144;-67
2022/01/23 09:16:36;;;;;;;4.82;3.38;;;9.40;82.50;;;;;;5981784;23;94063;-67
2022/01/23 09:19:04;;;;;;;6.63;4.45;;;9.40;82.20;;;;;;6007448;23;92780;-67
2022/01/23 09:21:31;;;;;;;4.78;3.70;;;9.40;82.00;;;;;;5981927;23;92532;-67
2022/01/23 09:23:59;;;;;;;6.25;4.45;;;9.50;81.90;;;;;;5982749;23;96184;-67
2022/01/23 09:26:26;;;;;;;6.00;4.10;;;9.60;81.70;;;;;;5981999;23;92925;-67
2022/01/23 09:28:56;;;;;;;5.43;3.88;;;9.60;81.40;;;;;;5982273;23;92827;-66
2022/01/23 09:31:29;;;;;;;5.75;3.33;;;9.70;81.00;;;;;;5980383;23;94745;-66
2022/01/23 09:33:56;;;;;;;6.53;3.30;;;9.80;80.50;;;;;;6007472;23;92482;-66
2022/01/23 09:36:24;;;;;;;5.95;3.40;;;9.80;79.80;;;;;;6006842;23;93243;-67
2022/01/23 09:38:51;;;;;;;2.92;2.72;;;9.90;79.50;;;;;;6007075;23;93815;-69
2022/01/23 09:41:27;;;;;;;4.18;3.00;;;9.90;79.40;;;;;;6006909;23;92422;-69
2022/01/23 09:43:55;;;;;;;4.53;3.13;;;10.00;79.20;;;;;;6007277;23;92380;-69
2022/01/23 09:46:24;;;;;;;5.05;3.10;;;10.00;78.80;;;;;;5981052;23;94318;-70
2022/01/23 09:48:52;;;;;;;3.10;2.80;;;10.10;79.00;;;;;;6007489;23;92774;-67
2022/01/23 09:51:23;;;;;;;3.20;2.90;;;10.10;78.20;;;;;;5981244;23;92478;-68
2022/01/23 09:53:54;;;;;;;3.85;2.85;;;10.20;78.00;;;;;;6007076;23;92321;-67
2022/01/23 09:56:29;;;;;;;5.30;3.88;;;10.30;78.00;;;;;;6005446;23;95528;-67
2022/01/23 09:58:57;;;;;;;4.78;3.25;;;10.30;77.90;;;;;;6006852;23;99301;-67
2022/01/23 10:01:24;;;;;;;6.53;3.70;;;10.40;77.80;;;;;;6006008;23;92444;-67
2022/01/23 10:03:52;;;;;;;4.55;3.22;;;10.40;77.30;;;;;;6029378;23;92469;-70
2022/01/23 10:06:19;;;;;;;4.20;3.10;;;10.40;77.10;;;;;;6008103;23;93158;-68
2022/01/23 10:08:48;;;;;;;3.60;2.53;;;10.50;77.00;;;;;;6008277;23;92976;-68
2022/01/23 10:11:16;;;;;;;3.72;3.15;;;10.50;76.60;;;;;;5982855;23;92502;-68
2022/01/23 10:13:43;;;;;;;3.65;3.22;;;10.60;76.50;;;;;;5983380;23;91666;-67
2022/01/23 10:16:10;;;;;;;4.53;3.88;;;10.70;76.80;;;;;;6008253;23;93012;-69
2022/01/23 10:18:38;;;;;;;3.92;3.53;;;10.70;76.80;;;;;;6007845;23;92450;-67
2022/01/23 10:21:05;;;;;;;4.53;2.72;;;10.80;76.60;;;;;;6006864;23;94748;-68
2022/01/23 10:23:33;;;;;;;5.57;3.47;;;10.80;76.20;;;;;;6008130;23;92882;-69
2022/01/23 10:26:03;;;;;;;2.55;2.25;;;10.90;75.90;;;;;;6007842;23;93161;-68
2022/01/23 10:28:32;;;;;;;4.50;2.70;;;10.90;76.00;;;;;;6007692;23;93279;-68
2022/01/23 10:31:03;;;;;;;3.78;2.67;;;11.00;74.70;;;;;;6007785;23;92441;-68
2022/01/23 10:33:33;;;;;;;4.15;3.13;;;11.10;75.40;;;;;;5959642;23;92831;-68
2022/01/23 10:36:07;;;;;;;3.25;2.47;;;11.10;74.60;;;;;;6008101;23;93899;-69
2022/01/23 10:38:53;;;;;;;3.15;2.17;;;11.10;74.70;;;;;;6008079;23;92800;-68
2022/01/23 10:47:31;;;;;;;1.73;1.63;;;11.40;74.10;;;;;;6006443;23;96569;-68
2022/01/23 10:50:03;;;;;;;2.35;1.40;;;11.40;73.40;;;;;;6007965;23;96353;-68
2022/01/23 10:52:32;;;;;;;2.85;1.45;;;11.40;73.10;;;;;;6008099;23;92422;-68
2022/01/23 10:55:05;;;;;;;1.45;1.13;;;11.40;72.70;;;;;;5982894;23;92488;-68
2022/01/23 10:57:40;;;;;;;3.17;1.63;;;11.50;72.40;;;;;;5982229;23;94057;-68
2022/01/23 11:00:20;;;;;;;4.90;1.85;;;11.60;71.90;;;;;;6008119;23;92805;-69
2022/01/23 11:02:47;;;;;;;1.80;1.25;;;11.60;72.00;;;;;;6007393;23;92370;-68
2022/01/23 11:05:19;;;;;;;1.40;1.30;;;11.60;71.70;;;;;;6007745;23;92054;-67
2022/01/23 11:07:49;;;;;;;1.30;1.20;;;11.60;71.60;;;;;;6003537;23;94066;-67
2022/01/23 11:10:21;;;;;;;1.25;1.15;;;11.70;70.70;;;;;;6007845;23;92701;-68
2022/01/23 11:18:15;;;;;;;0.90;0.90;;;11.70;70.50;;;;;;6007803;23;93022;-68
2022/01/23 11:20:45;;;;;;;3.05;1.33;;;11.70;70.70;;;;;;6007562;23;92648;-68
2022/01/23 11:23:39;;;;;;;2.47;1.13;;;11.80;70.40;;;;;;6008108;23;92490;-69
2022/01/23 11:26:09;;;;;;;1.65;0.82;;;11.90;70.00;;;;;;5977496;23;92653;-68
2022/01/23 11:28:44;;;;;;;1.30;1.15;;;11.80;70.20;;;;;;5982328;23;92996;-68
2022/01/23 11:31:18;;;;;;;1.33;1.00;;;11.80;69.30;;;;;;6008341;23;92727;-69
2022/01/23 11:33:46;;;;;;;;;;;11.90;69.10;;;;;;5982692;23;92437;-68
2022/01/23 11:36:15;;;;;;;2.22;0.93;;;11.70;68.60;;;;;;6009406;23;92393;-68
2022/01/23 11:38:45;;;;;;;1.05;0.95;;;11.80;69.20;;;;;;6006055;23;95386;-68
2022/01/23 11:55:34;;;;;;;1.38;0.80;;;11.70;67.20;;;;;;6007828;23;92406;-72
2022/01/23 11:58:03;;;;;;;0.82;0.70;;;11.70;67.40;;;;;;6008420;23;92015;-72
2022/01/23 12:00:37;;;;;;;0.90;0.50;;;11.60;68.00;;;;;;5958359;23;95757;-72
2022/01/23 12:03:18;;;;;;;1.48;0.70;;;11.60;67.70;;;;;;6007832;23;92744;-72
2022/01/23 12:05:48;;;;;;;1.15;1.05;;;11.60;67.30;;;;;;6006421;23;94696;-72
2022/01/23 12:08:21;;;;;;;1.83;1.20;;;11.60;67.40;;;;;;6008004;23;92923;-72
2022/01/23 12:11:40;;;;;;;1.53;1.30;;;11.60;67.30;;;;;;6007276;23;96341;-73
2022/01/23 12:17:05;;;;;;;0.93;0.85;;;11.40;67.30;;;;;;6007987;23;92399;-72
2022/01/23 12:19:52;;;;;;;1.13;0.70;;;11.30;67.70;;;;;;6007868;23;92326;-72
2022/01/23 12:22:28;;;;;;;1.65;1.10;;;11.30;67.50;;;;;;6005809;23;92934;-72
2022/01/23 12:24:57;;;;;;;2.75;1.70;;;11.20;68.00;;;;;;5958850;23;93892;-72
2022/01/23 12:27:29;;;;;;;3.08;1.30;;;11.20;68.10;;;;;;6007933;23;92861;-72
2022/01/23 12:30:31;;;;;;;1.75;1.00;;;11.10;68.30;;;;;;6007486;23;92399;-71
2022/01/23 12:33:17;;;;;;;0.80;0.80;;;11.10;67.60;;;;;;6000677;23;95516;-72
2022/01/23 12:35:54;;;;;;;1.38;0.80;;;11.10;68.50;;;;;;6007223;23;95042;-72
2022/01/23 12:38:29;;;;;;;1.25;1.00;;;11.00;69.10;;;;;;5982421;23;92396;-71
2022/01/23 12:41:20;;;;;;;2.78;1.08;;;10.90;69.80;;;;;;5982240;23;92466;-71
2022/01/23 12:43:47;;;;;;;1.35;0.90;;;11.00;69.80;;;;;;6007210;23;92995;-72
2022/01/23 12:46:25;;;;;;;3.53;1.20;;;10.90;70.10;;;;;;5982323;23;92710;-71
2022/01/23 12:48:52;;;;;;;1.52;0.98;;;10.90;70.20;;;;;;5982410;23;92911;-71
2022/01/23 12:51:20;;;;;;;0.80;0.77;;;10.90;70.40;;;;;;5982121;23;91719;-71
2022/01/23 12:53:46;;;;;;;1.73;1.00;;;10.90;70.10;;;;;;6007116;23;93092;-71
2022/01/23 12:56:19;;;;;;;1.15;0.82;;;10.80;69.80;;;;;;6006907;23;92792;-71
2022/01/23 12:59:06;;;;;;;2.05;1.05;;;10.90;70.10;;;;;;5980273;23;94825;-71
2022/01/23 13:01:35;;;;;;;0.98;0.98;;;11.00;69.90;;;;;;6007066;23;92470;-72
2022/01/23 13:04:06;;;;;;;1.33;0.82;;;10.90;70.10;;;;;;5981792;23;93248;-72
2022/01/23 13:06:49;;;;;;;2.33;1.00;;;10.90;69.90;;;;;;6007077;23;94025;-72
2022/01/23 13:12:08;;;;;;;1.00;0.93;;;10.90;68.80;;;;;;6007195;23;92407;-72
2022/01/23 13:32:39;;;;;;;1.10;1.05;;;10.80;70.40;;;;;;6005614;23;92529;-73
2022/01/23 13:35:11;;;;;;;1.52;1.00;;;10.80;70.50;;;;;;6006627;23;93834;-72
2022/01/23 13:37:42;;;;;;;7.38;6.68;;;10.90;70.70;;;;;;6007158;23;93114;-72
2022/01/23 13:40:23;;;;;;;8.75;5.95;;;10.80;70.80;;;;;;6007415;23;92792;-68
2022/01/23 13:59:26;;;;;;;2.35;1.48;;;10.70;72.80;;;;;;6008200;23;92978;-68
2022/01/23 14:04:30;;;;;;;2.42;2.22;;;10.60;72.60;;;;;;6008753;23;92352;-73
2022/01/23 14:06:57;;;;;;;3.05;1.90;;;10.60;72.90;;;;;;5982512;23;92526;-68
2022/01/23 14:09:26;;;;;;;3.33;2.38;;;10.60;72.90;;;;;;6008161;23;94044;-72
2022/01/23 14:11:54;;;;;;;3.30;2.95;;;10.50;72.90;;;;;;6008414;23;92663;-68
2022/01/23 14:14:26;;;;;;;3.38;2.85;;;10.50;73.20;;;;;;6008478;23;92486;-72
2022/01/23 14:17:09;;;;;;;3.40;2.67;;;10.50;73.30;;;;;;5982543;23;92475;-71
2022/01/23 14:19:36;;;;;;;2.10;1.30;;;10.40;73.10;;;;;;5981230;23;97856;-68
2022/01/23 14:22:04;;;;;;;6.90;6.40;;;10.40;73.00;;;;;;6007036;23;109945;-72
2022/01/23 14:24:34;;;;;;;2.63;2.35;;;10.40;73.00;;;;;;6008051;23;92400;-72
2022/01/23 14:27:01;;;;;;;3.38;2.03;;;10.40;73.10;;;;;;6007963;23;92338;-67
2022/01/23 14:29:33;;;;;;;3.95;2.15;;;10.40;73.30;;;;;;5982449;23;94339;-72
2022/01/23 14:32:11;;;;;;;4.00;3.70;;;10.30;73.10;;;;;;6007805;23;92853;-68
2022/01/23 14:34:38;;;;;;;6.03;5.60;;;10.30;73.40;;;;;;6008140;23;92392;-68
2022/01/23 14:37:06;;;;;;;5.15;4.70;;;10.20;73.40;;;;;;6008345;23;92153;-71
2022/01/23 14:39:34;;;;;;;3.78;3.25;;;10.20;73.60;;;;;;6008011;23;92925;-72
2022/01/23 14:42:18;;;;;;;3.15;2.58;;;10.20;73.90;;;;;;6007382;23;92917;-68
2022/01/23 14:44:45;;;;;;;4.57;3.92;;;10.10;73.90;;;;;;6006994;23;94737;-71
2022/01/23 14:47:12;;;;;;;3.88;3.40;;;10.10;74.10;;;;;;6007854;23;92413;-67
2022/01/23 14:49:44;;;;;;;3.90;2.58;;;10.10;74.30;;;;;;6007919;23;93064;-67
2022/01/23 14:52:13;;;;;;;2.80;2.60;;;10.10;74.40;;;;;;6007087;23;94612;-72
2022/01/23 14:54:41;;;;;;;4.63;4.22;;;10.00;74.10;;;;;;6007851;23;92417;-68
2022/01/23 14:57:12;;;;;;;3.90;3.50;;;10.10;74.00;;;;;;6007699;23;92447;-72
2022/01/23 14:59:39;;;;;;;3.10;2.78;;;10.00;74.00;;;;;;6007907;23;93132;-72
2022/01/23 15:02:07;;;;;;;6.35;5.75;;;10.00;74.00;;;;;;6007662;23;92758;-72
2022/01/23 15:04:46;;;;;;;2.45;2.25;;;10.00;74.00;;;;;;6008042;23;92749;-72
2022/01/23 15:07:15;;;;;;;2.63;2.33;;;10.10;73.70;;;;;;6007641;23;92276;-72
2022/01/23 15:09:46;;;;;;;4.35;3.85;;;10.00;73.80;;;;;;6006116;23;95488;-72
2022/01/23 15:12:14;;;;;;;2.30;1.70;;;10.00;74.10;;;;;;6007443;23;94181;-72
2022/01/23 15:14:42;;;;;;;2.83;1.52;;;10.00;74.10;;;;;;5982296;23;92484;-72
2022/01/23 15:17:09;;;;;;;1.90;1.80;;;10.00;74.20;;;;;;6007732;23;92470;-70
2022/01/23 15:19:36;;;;;;;1.48;1.30;;;9.90;74.00;;;;;;5982054;23;94197;-71
2022/01/23 15:22:03;;;;;;;2.65;2.00;;;9.80;73.50;;;;;;6007256;23;94843;-71
2022/01/23 15:24:31;;;;;;;2.78;1.88;;;9.80;73.80;;;;;;6008188;23;92776;-71
2022/01/23 15:26:58;;;;;;;1.90;1.73;;;9.80;73.50;;;;;;5982057;23;103663;-71
2022/01/23 15:29:25;;;;;;;1.52;1.42;;;9.80;73.30;;;;;;6007515;23;93497;-67
2022/01/23 15:31:52;;;;;;;1.60;1.50;;;9.80;73.20;;;;;;5982508;23;92555;-67
2022/01/23 15:34:20;;;;;;;1.90;1.80;;;9.80;73.10;;;;;;6006324;23;94845;-71
2022/01/23 15:36:47;;;;;;;2.28;1.92;;;9.80;73.30;;;;;;6007961;23;92421;-71
2022/01/23 15:39:15;;;;;;;2.25;2.05;;;9.80;73.50;;;;;;5981737;23;94111;-67
2022/01/23 15:41:42;;;;;;;2.55;2.05;;;9.80;73.80;;;;;;6007670;23;92697;-67
2022/01/23 15:44:09;;;;;;;2.38;2.17;;;9.80;74.60;;;;;;6007057;23;99155;-71
2022/01/23 15:46:37;;;;;;;9.75;6.07;;;9.80;74.30;;;;;;6007914;23;92464;-71
2022/01/23 15:49:06;;;;;;;6.85;4.53;;;9.70;74.40;;;;;;5981783;23;94044;-71
2022/01/23 15:51:35;;;;;;;6.70;6.00;;;9.70;74.50;;;;;;6008052;23;92970;-67
2022/01/23 15:54:03;;;;;;;4.32;3.92;;;9.70;74.70;;;;;;6007855;23;92493;-71
2022/01/23 15:56:30;;;;;;;4.43;4.07;;;9.70;74.90;;;;;;5981213;23;92470;-71
2022/01/23 15:58:57;;;;;;;4.35;3.95;;;9.70;75.10;;;;;;6005838;23;95484;-71
2022/01/23 16:01:24;;;;;;;6.57;4.50;;;9.60;75.10;;;;;;6007152;23;95023;-71
2022/01/23 16:03:51;;;;;;;2.35;2.15;;;9.60;75.10;;;;;;5982410;23;92429;-67
2022/01/23 16:06:19;;;;;;;2.92;2.10;;;9.60;74.90;;;;;;5982584;23;92459;-71
2022/01/23 16:08:50;;;;;;;2.10;1.90;;;9.60;74.90;;;;;;6007834;23;94077;-72
2022/01/23 16:11:17;;;;;;;2.05;1.95;;;9.50;75.00;;;;;;6006334;23;113644;-72
2022/01/23 16:13:44;;;;;;;2.15;1.70;;;9.50;75.00;;;;;;6007747;23;92389;-67
2022/01/23 16:16:11;;;;;;;3.13;1.95;;;9.50;75.00;;;;;;6007658;23;91694;-66
2022/01/23 16:18:38;;;;;;;3.97;2.13;;;9.50;75.10;;;;;;5981918;23;93995;-67
2022/01/23 16:21:07;;;;;;;4.10;2.75;;;9.50;74.70;;;;;;5982150;23;92817;-67
2022/01/23 16:23:34;;;;;;;2.78;2.45;;;9.40;74.00;;;;;;5980157;23;95105;-71
2022/01/23 16:26:11;;;;;;;3.78;2.55;;;9.40;73.80;;;;;;6007490;23;92792;-72
2022/01/23 16:28:39;;;;;;;1.90;1.60;;;9.40;74.10;;;;;;5981440;23;94030;-71
2022/01/23 16:31:07;;;;;;;6.55;4.20;;;9.40;74.30;;;;;;5981825;23;93860;-71
2022/01/23 16:33:34;;;;;;;8.30;6.30;;;9.40;74.50;;;;;;6007264;23;96538;-71
2022/01/23 16:36:01;;;;;;;4.45;2.50;;;9.30;74.80;;;;;;5981703;23;92441;-71
2022/01/23 16:38:28;;;;;;;3.00;2.70;;;9.30;75.40;;;;;;6007045;23;93114;-71
2022/01/23 16:40:56;;;;;;;9.10;6.15;;;9.30;75.30;;;;;;6007688;23;92773;-72
2022/01/23 16:43:24;;;;;;;7.72;5.28;;;9.30;75.30;;;;;;6029643;23;92447;-72
2022/01/23 16:45:55;;;;;;;3.53;3.22;;;9.30;75.50;;;;;;6007796;23;92630;-72
2022/01/23 16:48:23;;;;;;;7.40;4.50;;;9.30;75.50;;;;;;6005620;23;95408;-72
2022/01/23 16:50:54;;;;;;;2.63;2.10;;;9.30;75.50;;;;;;6007417;23;95189;-66
2022/01/23 16:53:21;;;;;;;3.42;3.13;;;9.30;75.40;;;;;;6007408;23;92676;-67
2022/01/23 16:55:55;;;;;;;3.25;3.00;;;9.30;75.40;;;;;;6007430;23;92474;-67
2022/01/23 16:58:27;;;;;;;5.57;5.03;;;9.30;75.30;;;;;;6007020;23;92950;-67
2022/01/23 17:00:55;;;;;;;5.03;4.35;;;9.30;75.30;;;;;;5981768;23;92537;-67
2022/01/23 17:03:22;;;;;;;3.03;2.47;;;9.30;75.40;;;;;;5982121;23;92576;-66
2022/01/23 17:05:50;;;;;;;2.47;2.10;;;9.20;75.30;;;;;;6007526;23;95526;-72
2022/01/23 17:08:17;;;;;;;9.07;6.20;;;9.20;75.20;;;;;;6006807;23;93008;-67
2022/01/23 17:10:46;;;;;;;4.43;2.80;;;9.30;75.20;;;;;;5981577;23;94731;-70